createdAt,value
2022-12-27T00:02:42.338Z,98484.28
2022-12-27T00:07:44.567Z,98488.32
2022-12-27T00:12:50.438Z,98489.95
2022-12-27T00:17:52.238Z,98476.83
2022-12-27T00:22:53.910Z,98466.69
2022-12-27T00:27:55.693Z,98448.80
2022-12-27T00:32:58.059Z,98449.87
2022-12-27T00:37:59.911Z,98455.52
2022-12-27T00:43:01.606Z,98449.80
2022-12-27T00:48:07.099Z,98452.69
2022-12-27T00:53:10.269Z,98457.48
2022-12-27T00:58:12.089Z,98461.00
2022-12-27T01:03:14.870Z,98468.39
2022-12-27T01:08:16.589Z,98480.02
2022-12-27T01:13:18.304Z,98492.47
2022-12-27T01:18:20.172Z,98499.30
2022-12-27T01:23:21.988Z,98541.36
2022-12-27T01:28:23.722Z,98556.41
2022-12-27T01:33:25.420Z,98561.76
2022-12-27T01:38:27.091Z,98574.26
2022-12-27T01:43:38.889Z,98572.60
2022-12-27T01:48:41.233Z,98575.35
2022-12-27T01:53:47.802Z,98580.95
2022-12-27T01:59:01.394Z,98586.13
2022-12-27T02:04:14.917Z,98598.39
2022-12-27T02:09:21.055Z,98596.95
2022-12-27T02:14:42.672Z,98601.12
2022-12-27T02:20:03.015Z,98601.15
2022-12-27T02:25:28.199Z,98612.83
2022-12-27T02:30:33.756Z,98616.02
2022-12-27T02:35:44.089Z,98622.53
2022-12-27T02:41:04.828Z,98626.84
2022-12-27T02:46:36.316Z,98635.04
2022-12-27T02:52:13.554Z,98642.17
2022-12-27T02:57:18.294Z,98651.55
2022-12-27T03:02:54.391Z,98662.16
2022-12-27T03:08:11.681Z,98674.94
2022-12-27T03:13:47.472Z,98684.63
2022-12-27T03:19:02.755Z,98688.31
2022-12-27T03:24:25.317Z,98700.71
2022-12-27T03:29:46.435Z,98713.05
2022-12-27T03:34:55.029Z,98730.11
2022-12-27T03:40:03.630Z,98747.34
2022-12-27T03:45:06.221Z,98774.90
2022-12-27T03:50:16.094Z,98780.05
2022-12-27T03:55:18.020Z,98787.61
2022-12-27T04:00:20.002Z,98805.36
2022-12-27T04:05:23.163Z,98807.76
2022-12-27T04:10:43.906Z,98804.54
2022-12-27T04:16:04.498Z,98807.23
2022-12-27T04:21:25.061Z,98815.75
2022-12-27T04:26:45.575Z,98813.83
2022-12-27T04:32:06.363Z,98831.84
2022-12-27T04:37:10.081Z,98845.36
2022-12-27T04:42:30.889Z,98855.42
2022-12-27T04:47:51.945Z,98870.79
2022-12-27T04:53:12.662Z,98878.69
2022-12-27T04:58:14.524Z,98885.04
2022-12-27T05:03:19.118Z,98876.59
2022-12-27T05:08:40.044Z,98899.77
2022-12-27T05:14:00.202Z,98917.16
2022-12-27T05:19:02.352Z,98929.25
2022-12-27T05:24:23.736Z,98939.48
2022-12-27T05:29:25.430Z,98944.66
2022-12-27T05:34:27.141Z,98942.88
2022-12-27T05:39:28.867Z,98950.41
2022-12-27T05:44:30.539Z,98956.08
2022-12-27T05:49:32.224Z,98963.14
2022-12-27T05:54:33.907Z,98974.39
2022-12-27T05:59:35.663Z,98991.89
2022-12-27T06:04:37.533Z,99004.61
2022-12-27T06:09:40.339Z,99024.95
2022-12-27T06:14:42.198Z,99033.82
2022-12-27T06:19:43.929Z,99057.77
2022-12-27T06:24:45.655Z,99070.33
2022-12-27T06:29:47.556Z,99088.52
2022-12-27T06:34:49.290Z,99103.05
2022-12-27T06:39:51.338Z,99111.04
2022-12-27T06:44:53.148Z,99118.64
2022-12-27T06:49:55.913Z,99132.45
2022-12-27T06:54:57.764Z,99147.89
2022-12-27T06:59:59.646Z,99155.83
2022-12-27T07:05:01.535Z,99162.64
2022-12-27T07:10:03.980Z,99167.84
2022-12-27T07:15:06.805Z,99176.00
2022-12-27T07:20:09.286Z,99191.56
2022-12-27T07:25:11.011Z,99197.02
2022-12-27T07:30:12.977Z,99205.45
2022-12-27T07:35:14.901Z,99221.83
2022-12-27T07:40:16.801Z,99236.08
2022-12-27T07:45:19.851Z,99250.54
2022-12-27T07:50:21.871Z,99261.05
2022-12-27T07:55:23.667Z,99271.78
2022-12-27T08:00:25.399Z,99275.48
2022-12-27T08:05:28.066Z,99280.92
2022-12-27T08:10:29.929Z,99287.96
2022-12-27T08:15:31.951Z,99296.41
2022-12-27T08:20:33.730Z,99303.02
2022-12-27T08:25:35.438Z,99318.04
2022-12-27T08:30:39.312Z,99316.73
2022-12-27T08:35:52.837Z,99322.44
2022-12-27T08:40:55.453Z,99329.22
2022-12-27T08:46:05.624Z,99331.64
2022-12-27T08:51:12.612Z,99335.73
2022-12-27T08:56:16.475Z,99338.70
2022-12-27T09:01:19.075Z,99355.27
2022-12-27T09:06:23.610Z,99366.17
2022-12-27T09:11:28.426Z,99367.54
2022-12-27T09:16:30.634Z,99373.73
2022-12-27T09:21:34.127Z,99373.16
2022-12-27T09:26:36.103Z,99375.88
2022-12-27T09:31:37.850Z,99375.25
2022-12-27T09:36:40.745Z,99365.63
2022-12-27T09:47:53.651Z,99361.92
2022-12-27T09:53:17.634Z,99367.14
2022-12-27T09:58:32.887Z,99365.58
2022-12-27T10:03:34.808Z,99366.95
2022-12-27T10:08:50.324Z,99364.73
2022-12-27T10:14:01.919Z,99360.71
2022-12-27T10:19:18.664Z,99357.83
2022-12-27T10:24:30.508Z,99363.80
2022-12-27T10:29:33.173Z,99363.67
2022-12-27T10:34:34.940Z,99366.52
2022-12-27T10:39:38.699Z,99370.77
2022-12-27T10:44:40.590Z,99374.95
2022-12-27T10:50:01.013Z,99383.06
2022-12-27T10:55:02.660Z,99377.17
2022-12-27T11:00:52.445Z,99388.08
2022-12-27T11:06:01.045Z,99378.08
2022-12-27T11:11:26.800Z,99381.20
2022-12-27T11:16:31.470Z,99389.91
2022-12-27T11:21:38.696Z,99385.35
2022-12-27T11:26:53.691Z,99381.31
2022-12-27T11:31:57.134Z,99376.95
2022-12-27T11:37:16.184Z,99376.65
2022-12-27T11:42:32.595Z,99366.92
2022-12-27T11:47:53.513Z,99374.16
2022-12-27T11:53:20.180Z,99381.51
2022-12-27T11:58:46.983Z,99382.03
2022-12-27T12:04:07.703Z,99385.85
2022-12-27T12:09:30.204Z,99390.10
2022-12-27T12:14:50.732Z,99395.52
2022-12-27T12:20:17.497Z,99399.21
2022-12-27T12:25:47.757Z,99394.23
2022-12-27T12:31:15.147Z,99390.75
2022-12-27T12:36:54.423Z,99392.45
2022-12-27T12:42:19.899Z,99392.56
2022-12-27T12:47:59.223Z,99391.57
2022-12-27T12:53:43.350Z,99393.69
2022-12-27T12:59:16.499Z,99402.59
2022-12-27T13:04:41.320Z,99410.34
2022-12-27T13:09:58.292Z,99409.39
2022-12-27T13:15:09.095Z,99413.92
2022-12-27T13:20:41.478Z,99417.35
2022-12-27T13:25:50.228Z,99419.91
2022-12-27T13:31:24.701Z,99432.48
2022-12-27T13:36:41.014Z,99427.89
2022-12-27T13:41:53.980Z,99416.20
2022-12-27T13:47:07.906Z,99416.95
2022-12-27T13:52:21.938Z,99416.20
2022-12-27T13:57:58.123Z,99421.14
2022-12-27T14:03:14.534Z,99433.25
2022-12-27T14:08:19.104Z,99439.08
2022-12-27T14:13:34.644Z,99445.35
2022-12-27T14:18:42.752Z,99449.71
2022-12-27T14:24:09.544Z,99455.45
2022-12-27T14:29:45.986Z,99457.83
2022-12-27T14:35:00.180Z,99453.32
2022-12-27T14:40:37.456Z,99462.77
2022-12-27T14:45:58.127Z,99462.33
2022-12-27T14:57:15.221Z,99478.73
2022-12-27T15:02:39.067Z,99492.21
2022-12-27T15:08:02.347Z,99500.36
2022-12-27T15:13:19.115Z,99507.09
2022-12-27T15:18:26.956Z,99510.27
2022-12-27T15:23:40.805Z,99507.30
2022-12-27T15:29:14.148Z,99508.08
2022-12-27T15:34:34.624Z,99506.52
2022-12-27T15:39:36.357Z,99506.27
2022-12-27T15:45:06.494Z,99504.24
2022-12-27T15:50:26.907Z,99509.90
2022-12-27T15:55:29.752Z,99512.70
2022-12-27T16:00:34.292Z,99510.80
2022-12-27T16:05:44.786Z,99514.19
2022-12-27T16:10:49.378Z,99513.92
2022-12-27T16:15:55.272Z,99516.58
2022-12-27T16:20:58.337Z,99510.73
2022-12-27T16:26:02.043Z,99510.95
2022-12-27T16:31:11.696Z,99508.94
2022-12-27T16:36:20.702Z,99513.60
2022-12-27T16:41:56.966Z,99516.45
2022-12-27T16:47:27.405Z,99522.67
2022-12-27T16:53:10.990Z,99524.55
2022-12-27T16:58:31.129Z,99523.45
2022-12-27T17:03:35.763Z,99527.70
2022-12-27T17:08:37.499Z,99531.52
2022-12-27T17:13:48.671Z,99535.09
2022-12-27T17:19:02.698Z,99541.45
2022-12-27T17:24:15.950Z,99541.40
2022-12-27T17:29:46.733Z,99546.50
2022-12-27T17:34:54.951Z,99554.22
2022-12-27T17:40:24.776Z,99552.94
2022-12-27T17:46:07.640Z,99551.86
2022-12-27T17:51:13.048Z,99552.89
2022-12-27T17:56:37.422Z,99551.17
2022-12-27T18:01:51.918Z,99554.11
2022-12-27T18:06:59.550Z,99563.70
2022-12-27T18:12:11.264Z,99571.61
2022-12-27T18:17:32.898Z,99574.17
2022-12-27T18:22:34.769Z,99578.45
2022-12-27T18:27:36.519Z,99579.05
2022-12-27T18:32:38.249Z,99587.48
2022-12-27T18:37:40.690Z,99584.69
2022-12-27T18:42:49.274Z,99583.49
2022-12-27T18:47:54.163Z,99585.84
2022-12-27T18:53:03.452Z,99595.50
2022-12-27T18:58:36.237Z,99598.09
2022-12-27T19:03:40.875Z,99595.27
2022-12-27T19:08:53.095Z,99594.64
2022-12-27T19:14:01.569Z,99592.95
2022-12-27T19:19:10.466Z,99579.73
2022-12-27T19:24:24.307Z,99581.05
2022-12-27T19:29:29.118Z,99580.66
2022-12-27T19:34:38.857Z,99580.28
2022-12-27T19:39:42.491Z,99577.82
2022-12-27T19:44:44.535Z,99582.95
2022-12-27T19:49:46.313Z,99587.97
2022-12-27T19:54:49.885Z,99594.21
2022-12-27T19:59:51.654Z,99599.98
2022-12-27T20:04:54.588Z,99604.10
2022-12-27T20:09:56.454Z,99605.59
2022-12-27T20:14:58.204Z,99614.45
2022-12-27T20:19:59.981Z,99613.76
2022-12-27T20:25:02.449Z,99617.52
2022-12-27T20:30:05.243Z,99617.23
2022-12-27T20:35:09.763Z,99618.42
2022-12-27T20:40:11.614Z,99617.24
2022-12-27T20:45:13.378Z,99627.10
2022-12-27T20:50:15.122Z,99633.27
2022-12-27T20:55:16.942Z,99636.60
2022-12-27T21:00:18.650Z,99641.39
2022-12-27T21:05:20.415Z,99641.59
2022-12-27T21:10:22.096Z,99643.90
2022-12-27T21:15:24.119Z,99647.02
2022-12-27T21:20:25.869Z,99647.77
2022-12-27T21:25:27.602Z,99647.71
2022-12-27T21:30:29.385Z,99645.99
2022-12-27T21:35:31.138Z,99642.20
2022-12-27T21:40:32.953Z,99646.41
2022-12-27T21:45:35.411Z,99641.41
2022-12-27T21:50:37.652Z,99634.29
2022-12-27T21:55:39.395Z,99626.38
2022-12-27T22:00:41.088Z,99623.20
2022-12-27T22:05:42.863Z,99626.71
2022-12-27T22:10:45.352Z,99625.45
2022-12-27T22:16:02.412Z,99628.54
2022-12-27T22:21:07.001Z,99626.14
2022-12-27T22:26:11.923Z,99626.35
2022-12-27T22:31:19.657Z,99629.44
2022-12-27T22:36:23.842Z,99621.38
2022-12-27T22:41:31.392Z,99617.39
2022-12-27T22:51:56.141Z,99616.43
2022-12-27T22:56:57.989Z,99618.27
2022-12-27T23:02:00.524Z,99616.92
2022-12-27T23:07:02.379Z,99614.19
2022-12-27T23:12:04.445Z,99615.09
2022-12-27T23:17:06.332Z,99614.63
2022-12-27T23:22:08.004Z,99611.80
2022-12-27T23:27:09.740Z,99611.84
2022-12-27T23:32:11.448Z,99611.34
2022-12-27T23:37:13.235Z,99601.02
2022-12-27T23:42:14.995Z,99599.31
2022-12-27T23:47:16.817Z,99595.16
2022-12-27T23:52:18.569Z,99588.25
2022-12-27T23:57:22.781Z,99585.60
